createdAt,value
2023-04-18T00:02:17.556Z,77389.63
2023-04-18T00:04:48.204Z,77393.69
2023-04-18T00:07:17.181Z,77391.66
2023-04-18T00:09:44.842Z,77395.72
2023-04-18T00:12:12.480Z,77395.72
2023-04-18T00:14:41.116Z,77397.75
2023-04-18T00:20:30.731Z,77395.72
2023-04-18T00:23:00.642Z,77387.59
2023-04-18T00:25:27.687Z,77397.75
2023-04-18T00:27:55.038Z,77391.66
2023-04-18T00:30:22.113Z,77393.69
2023-04-18T00:32:49.426Z,77391.66
2023-04-18T00:35:19.782Z,77399.78
2023-04-18T00:37:47.001Z,77391.66
2023-04-18T00:40:16.662Z,77395.72
2023-04-18T00:42:43.810Z,77391.66
2023-04-18T00:45:11.216Z,77395.72
2023-04-18T00:47:38.486Z,77399.78
2023-04-18T00:50:06.888Z,77399.78
2023-04-18T00:52:36.010Z,77403.84
2023-04-18T00:55:06.697Z,77407.88
2023-04-18T00:57:34.459Z,77399.78
2023-04-18T01:00:10.303Z,77399.78
2023-04-18T01:02:40.079Z,77403.84
2023-04-18T01:05:08.739Z,77403.84
2023-04-18T01:07:41.710Z,77407.88
2023-04-18T01:10:10.790Z,77411.94
2023-04-18T01:12:38.351Z,77407.88
2023-04-18T01:15:05.917Z,77403.84
2023-04-18T01:17:35.557Z,77416.00
2023-04-18T01:24:15.067Z,77407.88
2023-04-18T01:26:44.220Z,77405.84
2023-04-18T01:29:11.946Z,77407.88
2023-04-18T01:31:40.344Z,77403.84
2023-04-18T01:34:08.442Z,77399.78
2023-04-18T01:36:36.333Z,77405.84
2023-04-18T01:39:03.919Z,77399.78
2023-04-18T01:41:33.162Z,77391.66
2023-04-18T01:44:00.930Z,77411.94
2023-04-18T01:46:29.085Z,77403.84
2023-04-18T01:48:57.264Z,77399.78
2023-04-18T01:51:24.725Z,77409.91
2023-04-18T01:53:53.958Z,77399.78
2023-04-18T01:56:21.397Z,77399.78
2023-04-18T01:58:48.645Z,77405.84
2023-04-18T02:01:15.729Z,77403.84
2023-04-18T02:03:43.310Z,77401.81
2023-04-18T02:06:10.627Z,77403.84
2023-04-18T02:08:37.962Z,77393.69
2023-04-18T02:11:05.604Z,77391.66
2023-04-18T02:13:33.001Z,77395.72
2023-04-18T02:16:00.111Z,77387.59
2023-04-18T02:18:27.653Z,77395.72
2023-04-18T02:20:54.865Z,77387.59
2023-04-18T02:23:22.770Z,77391.66
2023-04-18T02:25:50.896Z,77391.66
2023-04-18T02:28:18.336Z,77387.59
2023-04-18T02:30:45.254Z,77389.63
2023-04-18T02:33:12.428Z,77393.69
2023-04-18T02:35:40.748Z,77389.63
2023-04-18T02:38:09.397Z,77391.66
2023-04-18T02:40:36.501Z,77387.59
2023-04-18T02:43:03.809Z,77383.56
2023-04-18T02:45:30.906Z,77391.66
2023-04-18T02:48:01.664Z,77387.59
2023-04-18T02:50:29.541Z,77387.59
2023-04-18T02:52:57.900Z,77393.69
2023-04-18T02:55:32.382Z,77401.81
2023-04-18T02:58:01.112Z,77395.72
2023-04-18T03:00:55.464Z,77395.72
2023-04-18T03:04:01.720Z,77395.72
2023-04-18T03:06:34.190Z,77395.72
2023-04-18T03:09:03.741Z,77395.72
2023-04-18T03:11:34.243Z,77391.66
2023-04-18T03:14:02.200Z,77395.72
2023-04-18T03:16:37.596Z,77397.75
2023-04-18T03:19:06.532Z,77395.72
2023-04-18T03:21:34.046Z,77399.78
2023-04-18T03:24:01.745Z,77403.84
2023-04-18T03:26:28.831Z,77407.88
2023-04-18T03:28:57.265Z,77405.84
2023-04-18T03:31:25.180Z,77403.84
2023-04-18T03:33:52.810Z,77407.88
2023-04-18T03:36:25.284Z,77405.84
2023-04-18T03:38:55.097Z,77411.94
2023-04-18T03:41:22.385Z,77416.00
2023-04-18T03:43:49.885Z,77418.03
2023-04-18T03:46:17.661Z,77416.00
2023-04-18T03:48:45.815Z,77411.94
2023-04-18T03:51:12.768Z,77420.06
2023-04-18T03:53:40.564Z,77416.00
2023-04-18T03:56:07.879Z,77411.94
2023-04-18T03:58:47.763Z,77407.88
2023-04-18T04:01:14.969Z,77411.94
2023-04-18T04:03:42.454Z,77413.97
2023-04-18T04:06:09.731Z,77416.00
2023-04-18T04:08:37.360Z,77407.88
2023-04-18T04:11:04.334Z,77407.88
2023-04-18T04:13:32.292Z,77407.88
2023-04-18T04:16:00.244Z,77411.94
2023-04-18T04:18:31.393Z,77407.88
2023-04-18T04:21:01.148Z,77407.88
2023-04-18T04:23:42.951Z,77405.84
2023-04-18T04:26:16.070Z,77403.84
2023-04-18T04:28:51.690Z,77407.88
2023-04-18T04:31:22.813Z,77403.84
2023-04-18T04:33:50.747Z,77397.75
2023-04-18T04:36:21.560Z,77401.81
2023-04-18T04:38:50.119Z,77403.84
2023-04-18T04:41:18.532Z,77395.72
2023-04-18T04:43:46.879Z,77403.84
2023-04-18T04:46:20.000Z,77391.66
2023-04-18T04:48:50.093Z,77387.59
2023-04-18T04:51:18.809Z,77387.59
2023-04-18T04:53:46.657Z,77381.53
2023-04-18T04:56:13.725Z,77375.44
2023-04-18T04:58:40.998Z,77371.38
2023-04-18T05:01:24.384Z,77371.38
2023-04-18T05:03:52.816Z,77363.28
2023-04-18T05:06:20.964Z,77361.25
2023-04-18T05:08:49.104Z,77367.34
2023-04-18T05:11:17.047Z,77367.34
2023-04-18T05:13:44.286Z,77355.16
2023-04-18T05:16:11.632Z,77351.13
2023-04-18T05:18:41.346Z,77347.06
2023-04-18T05:21:08.555Z,77338.94
2023-04-18T05:23:37.048Z,77338.94
2023-04-18T05:26:05.425Z,77338.94
2023-04-18T05:28:33.423Z,77322.72
2023-04-18T05:31:03.577Z,77320.69
2023-04-18T05:33:31.884Z,77302.44
2023-04-18T05:35:59.411Z,77294.34
2023-04-18T05:38:26.990Z,77290.28
2023-04-18T05:40:56.007Z,77290.28
2023-04-18T05:43:24.728Z,77294.34
2023-04-18T05:45:57.229Z,77294.34
2023-04-18T05:48:25.361Z,77290.28
2023-04-18T05:50:52.347Z,77298.41
2023-04-18T05:53:19.861Z,77298.41
2023-04-18T05:55:48.750Z,77296.38
2023-04-18T05:58:16.612Z,77298.41
2023-04-18T06:00:43.765Z,77294.34
2023-04-18T06:03:11.799Z,77282.19
2023-04-18T06:05:41.305Z,77282.19
2023-04-18T06:08:08.919Z,77288.25
2023-04-18T06:10:37.727Z,77278.13
2023-04-18T06:13:06.719Z,77265.97
2023-04-18T06:15:34.996Z,77270.00
2023-04-18T06:18:02.325Z,77270.00
2023-04-18T06:20:29.545Z,77261.91
2023-04-18T06:22:57.022Z,77257.84
2023-04-18T06:25:24.881Z,77253.78
2023-04-18T06:27:52.300Z,77245.69
2023-04-18T06:30:22.210Z,77241.63
2023-04-18T06:32:49.715Z,77241.63
2023-04-18T06:35:17.163Z,77221.34
2023-04-18T06:37:45.005Z,77217.28
2023-04-18T06:40:12.482Z,77213.25
2023-04-18T06:42:39.856Z,77213.25
2023-04-18T06:45:07.439Z,77209.19
2023-04-18T06:47:35.124Z,77205.13
2023-04-18T06:50:02.116Z,77209.19
2023-04-18T06:52:29.733Z,77201.06
2023-04-18T06:54:56.726Z,77199.06
2023-04-18T06:57:24.257Z,77199.06
2023-04-18T06:59:51.291Z,77201.06
2023-04-18T07:02:18.922Z,77205.13
2023-04-18T07:04:46.137Z,77203.09
2023-04-18T07:07:13.528Z,77213.25
2023-04-18T07:09:40.374Z,77213.25
2023-04-18T07:12:08.281Z,77203.09
2023-04-18T07:14:35.724Z,77205.13
2023-04-18T07:17:03.658Z,77197.03
2023-04-18T07:19:30.718Z,77184.84
2023-04-18T07:21:58.798Z,77174.72
2023-04-18T07:24:25.793Z,77168.63
2023-04-18T07:26:55.029Z,77160.53
2023-04-18T07:29:22.145Z,77148.38
2023-04-18T07:31:49.983Z,77140.25
2023-04-18T07:34:17.496Z,77124.03
2023-04-18T07:36:45.405Z,77107.81
2023-04-18T07:39:12.333Z,77091.59
2023-04-18T07:41:39.632Z,77083.50
2023-04-18T07:44:06.882Z,77085.50
2023-04-18T07:46:34.977Z,77079.44
2023-04-18T07:49:02.448Z,77073.34
2023-04-18T07:51:32.968Z,77059.16
2023-04-18T07:54:00.229Z,77047.00
2023-04-18T07:56:27.861Z,77034.84
2023-04-18T07:58:54.968Z,77006.44
2023-04-18T08:01:24.799Z,76984.16
2023-04-18T08:03:53.628Z,76957.78
2023-04-18T08:06:21.612Z,76965.91
2023-04-18T08:08:48.848Z,76976.03
2023-04-18T08:11:16.090Z,76980.09
2023-04-18T08:13:43.439Z,76965.91
2023-04-18T08:16:10.897Z,76974.00
2023-04-18T08:18:39.249Z,76971.97
2023-04-18T08:21:07.962Z,76976.03
2023-04-18T08:23:35.609Z,76974.00
2023-04-18T08:26:03.047Z,76965.91
2023-04-18T08:28:33.497Z,76949.69
2023-04-18T08:31:02.046Z,76935.50
2023-04-18T08:33:29.953Z,76913.19
2023-04-18T08:35:57.837Z,76901.03
2023-04-18T08:38:24.908Z,76874.66
2023-04-18T08:40:52.390Z,76852.38
2023-04-18T08:43:19.365Z,76828.03
2023-04-18T08:45:46.662Z,76811.81
2023-04-18T08:48:15.139Z,76807.78
2023-04-18T08:50:42.774Z,76813.84
2023-04-18T08:53:10.108Z,76819.94
2023-04-18T08:55:37.826Z,76811.81
2023-04-18T08:58:06.953Z,76791.56
2023-04-18T09:00:34.322Z,76775.34
2023-04-18T09:03:03.896Z,76759.13
2023-04-18T09:05:31.929Z,76736.81
2023-04-18T09:07:58.749Z,76730.75
2023-04-18T09:10:33.293Z,76704.38
2023-04-18T09:13:03.388Z,76686.13
2023-04-18T09:15:31.362Z,76667.91
2023-04-18T09:18:00.365Z,76661.81
2023-04-18T09:20:38.459Z,76655.72
2023-04-18T09:23:11.601Z,76645.59
2023-04-18T09:25:46.648Z,76629.38
2023-04-18T09:28:28.816Z,76605.06
2023-04-18T09:30:58.494Z,76574.66
2023-04-18T09:33:33.088Z,76564.50
2023-04-18T09:36:22.041Z,76552.34
2023-04-18T09:38:56.020Z,76536.13
2023-04-18T09:41:24.664Z,76532.09
2023-04-18T09:44:12.506Z,76552.34
2023-04-18T09:46:45.240Z,76564.50
2023-04-18T09:49:14.527Z,76568.56
2023-04-18T09:51:43.613Z,76576.69
2023-04-18T09:54:15.095Z,76576.69
2023-04-18T09:56:45.141Z,76588.84
2023-04-18T09:59:14.096Z,76588.84
2023-04-18T10:01:47.410Z,76580.72
2023-04-18T10:04:16.907Z,76572.63
2023-04-18T10:06:47.052Z,76564.50
2023-04-18T10:09:16.392Z,76544.25
2023-04-18T10:11:44.576Z,76519.91
2023-04-18T10:14:13.860Z,76499.66
2023-04-18T10:16:45.567Z,76475.31
2023-04-18T10:19:29.610Z,76436.81
2023-04-18T10:22:02.203Z,76438.84
2023-04-18T10:24:49.482Z,76438.84
2023-04-18T10:27:17.922Z,76406.41
2023-04-18T10:29:53.213Z,76361.81
2023-04-18T10:32:23.548Z,76329.38
2023-04-18T10:34:53.569Z,76305.06
2023-04-18T10:37:21.332Z,76321.28
2023-04-18T10:39:49.474Z,76345.59
2023-04-18T10:42:17.260Z,76373.97
2023-04-18T10:45:17.137Z,76382.09
2023-04-18T10:47:45.301Z,76369.91
2023-04-18T10:50:12.521Z,76365.88
2023-04-18T10:52:40.384Z,76353.72
2023-04-18T10:55:15.867Z,76333.44
2023-04-18T10:57:48.646Z,76301.00
2023-04-18T11:00:18.979Z,76262.50
2023-04-18T11:02:53.147Z,76232.09
2023-04-18T11:05:29.097Z,76226.00
2023-04-18T11:07:56.417Z,76219.94
2023-04-18T11:10:25.789Z,76223.97
2023-04-18T11:12:54.807Z,76199.66
2023-04-18T11:15:24.121Z,76167.22
2023-04-18T11:18:03.126Z,76175.34
2023-04-18T11:20:46.687Z,76183.44
2023-04-18T11:23:25.049Z,76175.34
2023-04-18T11:25:56.428Z,76146.97
2023-04-18T11:28:28.656Z,76142.91
2023-04-18T11:30:59.525Z,76185.47
2023-04-18T11:33:28.151Z,76215.88
2023-04-18T11:35:58.538Z,76236.16
2023-04-18T11:38:31.084Z,76276.69
2023-04-18T11:40:58.473Z,76284.78
2023-04-18T11:43:25.916Z,76290.88
2023-04-18T11:45:57.473Z,76292.91
2023-04-18T11:48:42.428Z,76313.16
2023-04-18T11:51:34.438Z,76349.66
2023-04-18T11:54:02.253Z,76378.03
2023-04-18T11:56:29.297Z,76406.41
2023-04-18T11:58:57.004Z,76414.50
2023-04-18T12:01:27.076Z,76410.47
2023-04-18T12:04:08.426Z,76396.28
2023-04-18T12:06:53.600Z,76394.25
2023-04-18T12:09:25.324Z,76373.97
2023-04-18T12:11:59.700Z,76369.91
2023-04-18T12:14:27.732Z,76369.91
2023-04-18T12:16:55.538Z,76373.97
2023-04-18T12:19:30.251Z,76373.97
2023-04-18T12:22:05.184Z,76353.72
2023-04-18T12:24:33.033Z,76325.31
2023-04-18T12:27:00.509Z,76305.06
2023-04-18T12:29:29.203Z,76290.88
2023-04-18T12:31:56.676Z,76290.88
2023-04-18T12:34:24.052Z,76296.94
2023-04-18T12:36:52.613Z,76323.31
2023-04-18T12:39:19.932Z,76345.59
2023-04-18T12:41:49.041Z,76365.88
2023-04-18T12:44:17.799Z,76357.75
2023-04-18T12:46:45.025Z,76347.63
2023-04-18T12:49:12.476Z,76339.50
2023-04-18T12:51:40.670Z,76329.38
2023-04-18T12:54:08.147Z,76319.25
2023-04-18T12:56:35.044Z,76301.00
2023-04-18T12:59:02.566Z,76288.84
2023-04-18T13:01:30.212Z,76288.84
2023-04-18T13:04:10.868Z,76276.69
2023-04-18T13:06:40.364Z,76246.28
2023-04-18T13:09:08.171Z,76236.16
2023-04-18T13:11:35.143Z,76236.16
2023-04-18T13:14:02.524Z,76248.31
2023-04-18T13:16:29.635Z,76288.84
2023-04-18T13:18:57.024Z,76313.16
2023-04-18T13:21:25.767Z,76317.22
2023-04-18T13:23:53.286Z,76321.28
2023-04-18T13:26:20.693Z,76337.50
2023-04-18T13:28:48.200Z,76339.50
2023-04-18T13:31:16.905Z,76353.72
2023-04-18T13:33:44.889Z,76353.72
2023-04-18T13:36:11.888Z,76357.75
2023-04-18T13:38:39.663Z,76349.66
2023-04-18T13:41:12.946Z,76345.59
2023-04-18T13:43:41.844Z,76329.38
2023-04-18T13:46:08.762Z,76325.31
2023-04-18T13:48:36.255Z,76317.22
2023-04-18T13:51:03.653Z,76313.16
2023-04-18T13:53:31.257Z,76337.50
2023-04-18T13:55:58.659Z,76339.50
2023-04-18T13:58:25.929Z,76365.88
2023-04-18T14:00:54.007Z,76376.00
2023-04-18T14:03:21.674Z,76386.13
2023-04-18T14:05:48.786Z,76400.31
2023-04-18T14:08:16.061Z,76400.31
2023-04-18T14:10:43.852Z,76398.28
2023-04-18T14:13:11.092Z,76394.25
2023-04-18T14:15:38.870Z,76406.41
2023-04-18T14:18:06.868Z,76378.03
2023-04-18T14:20:34.803Z,76369.91
2023-04-18T14:23:02.233Z,76357.75
2023-04-18T14:25:30.011Z,76345.59
2023-04-18T14:28:11.003Z,76329.38
2023-04-18T14:30:39.972Z,76323.31
2023-04-18T14:33:09.945Z,76303.03
2023-04-18T14:35:37.653Z,76284.78
2023-04-18T14:38:05.258Z,76256.41
2023-04-18T14:40:33.183Z,76258.44
2023-04-18T14:43:01.430Z,76248.31
2023-04-18T14:45:28.639Z,76248.31
2023-04-18T14:47:56.297Z,76244.25
2023-04-18T14:50:23.397Z,76256.41
2023-04-18T14:52:51.284Z,76272.63
2023-04-18T14:55:20.189Z,76272.63
2023-04-18T14:57:47.967Z,76268.56
2023-04-18T15:00:15.762Z,76268.56
2023-04-18T15:02:43.650Z,76272.63
2023-04-18T15:05:12.217Z,76272.63
2023-04-18T15:07:40.847Z,76292.91
2023-04-18T15:10:08.605Z,76301.00
2023-04-18T15:12:36.454Z,76309.13
2023-04-18T15:15:04.077Z,76317.22
2023-04-18T15:17:32.257Z,76317.22
2023-04-18T15:19:59.621Z,76329.38
2023-04-18T15:22:26.867Z,76329.38
2023-04-18T15:24:53.788Z,76333.44
2023-04-18T15:27:21.958Z,76333.44
2023-04-18T15:29:48.817Z,76337.50
2023-04-18T15:32:16.858Z,76341.53
2023-04-18T15:34:43.913Z,76341.53
2023-04-18T15:37:11.790Z,76341.53
2023-04-18T15:39:39.123Z,76351.69
2023-04-18T15:42:07.185Z,76357.75
2023-04-18T15:44:34.273Z,76355.72
2023-04-18T15:47:01.886Z,76363.84
2023-04-18T15:49:29.031Z,76367.88
2023-04-18T15:51:56.918Z,76367.88
2023-04-18T15:54:23.861Z,76369.91
2023-04-18T15:56:52.000Z,76378.03
2023-04-18T15:59:18.960Z,76382.09
2023-04-18T16:01:46.419Z,76378.03
2023-04-18T16:04:13.722Z,76373.97
2023-04-18T16:06:41.858Z,76382.09
2023-04-18T16:09:09.905Z,76382.09
2023-04-18T16:11:37.207Z,76386.13
2023-04-18T16:14:04.132Z,76382.09
2023-04-18T16:16:31.741Z,76378.03
2023-04-18T16:18:59.075Z,76378.03
2023-04-18T16:21:26.321Z,76382.09
2023-04-18T16:23:53.999Z,76386.13
2023-04-18T16:26:21.770Z,76378.03
2023-04-18T16:28:48.952Z,76386.13
2023-04-18T16:31:16.419Z,76392.22
2023-04-18T16:33:45.250Z,76394.25
2023-04-18T16:36:13.423Z,76398.28
2023-04-18T16:38:40.993Z,76398.28
2023-04-18T16:41:08.479Z,76406.41
2023-04-18T16:43:38.241Z,76402.34
2023-04-18T16:46:05.694Z,76408.44
2023-04-18T16:48:33.010Z,76406.41
2023-04-18T16:51:00.685Z,76410.47
2023-04-18T16:53:27.678Z,76414.50
2023-04-18T16:55:55.026Z,76426.69
2023-04-18T16:58:23.523Z,76422.63
2023-04-18T17:00:52.660Z,76430.72
2023-04-18T17:03:19.895Z,76430.72
2023-04-18T17:05:47.274Z,76434.78
2023-04-18T17:08:14.224Z,76434.78
2023-04-18T17:10:42.020Z,76442.91
2023-04-18T17:13:08.912Z,76446.94
2023-04-18T17:15:36.573Z,76446.94
2023-04-18T17:18:03.975Z,76459.09
2023-04-18T17:20:31.680Z,76467.22
2023-04-18T17:22:58.629Z,76467.22
2023-04-18T17:25:26.189Z,76467.22
2023-04-18T17:27:53.107Z,76473.28
2023-04-18T17:30:20.494Z,76479.38
2023-04-18T17:32:47.465Z,76479.38
2023-04-18T17:35:14.877Z,76487.50
2023-04-18T17:37:42.759Z,76481.41
2023-04-18T17:40:11.668Z,76483.44
2023-04-18T17:42:38.881Z,76485.47
2023-04-18T17:45:08.331Z,76491.53
2023-04-18T17:47:36.659Z,76495.59
2023-04-18T17:50:04.775Z,76499.66
2023-04-18T17:52:31.972Z,76499.66
2023-04-18T17:55:01.530Z,76499.66
2023-04-18T17:57:30.736Z,76503.69
2023-04-18T17:59:58.185Z,76505.72
2023-04-18T18:02:25.260Z,76507.75
2023-04-18T18:04:53.114Z,76499.66
2023-04-18T18:07:20.815Z,76503.69
2023-04-18T18:09:48.021Z,76499.66
2023-04-18T18:12:15.881Z,76499.66
2023-04-18T18:14:43.434Z,76497.63
2023-04-18T18:17:11.308Z,76495.59
2023-04-18T18:19:38.750Z,76503.69
2023-04-18T18:22:06.548Z,76495.59
2023-04-18T18:24:33.817Z,76499.66
2023-04-18T18:27:01.987Z,76499.66
2023-04-18T18:29:29.153Z,76503.69
2023-04-18T18:31:56.525Z,76499.66
2023-04-18T18:34:24.217Z,76499.66
2023-04-18T18:36:51.420Z,76505.72
2023-04-18T18:39:18.735Z,76503.69
2023-04-18T18:41:45.980Z,76499.66
2023-04-18T18:44:13.202Z,76505.72
2023-04-18T18:46:42.095Z,76519.91
2023-04-18T18:49:10.590Z,76515.88
2023-04-18T18:51:38.130Z,76507.75
2023-04-18T18:54:05.518Z,76507.75
2023-04-18T18:56:32.825Z,76511.81
2023-04-18T18:59:00.211Z,76519.91
2023-04-18T19:01:30.213Z,76515.88
2023-04-18T19:03:57.951Z,76517.88
2023-04-18T19:06:25.253Z,76515.88
2023-04-18T19:08:52.690Z,76519.91
2023-04-18T19:11:19.699Z,76523.97
2023-04-18T19:13:47.304Z,76523.97
2023-04-18T19:16:14.203Z,76519.91
2023-04-18T19:18:46.828Z,76523.97
2023-04-18T19:21:14.309Z,76528.03
2023-04-18T19:23:42.160Z,76511.81
2023-04-18T19:26:10.138Z,76517.88
2023-04-18T19:28:37.438Z,76521.94
2023-04-18T19:31:05.015Z,76519.91
2023-04-18T19:33:32.396Z,76523.97
2023-04-18T19:35:59.600Z,76523.97
2023-04-18T19:38:26.990Z,76536.13
2023-04-18T19:40:53.954Z,76532.09
2023-04-18T19:43:21.472Z,76536.13
2023-04-18T19:45:48.468Z,76538.16
2023-04-18T19:48:15.835Z,76534.09
2023-04-18T19:50:42.789Z,76542.22
2023-04-18T19:53:11.586Z,76538.16
2023-04-18T19:55:39.072Z,76556.41
2023-04-18T19:58:06.545Z,76552.34
2023-04-18T20:00:34.321Z,76544.25
2023-04-18T20:03:02.190Z,76552.34
2023-04-18T20:05:29.370Z,76554.38
2023-04-18T20:07:56.721Z,76554.38
2023-04-18T20:10:23.635Z,76560.47
2023-04-18T20:12:51.200Z,76568.56
2023-04-18T20:15:18.328Z,76568.56
2023-04-18T20:17:45.741Z,76572.63
2023-04-18T20:20:13.133Z,76576.69
2023-04-18T20:22:41.914Z,76576.69
2023-04-18T20:25:09.056Z,76576.69
2023-04-18T20:27:36.433Z,76580.72
2023-04-18T20:30:03.662Z,76580.72
2023-04-18T20:32:31.116Z,76588.84
2023-04-18T20:34:58.675Z,76598.97
2023-04-18T20:37:27.932Z,76601.00
2023-04-18T20:39:55.776Z,76619.25
2023-04-18T20:42:23.648Z,76613.16
2023-04-18T20:44:51.387Z,76621.28
2023-04-18T20:47:18.536Z,76625.31
2023-04-18T20:49:45.915Z,76625.31
2023-04-18T20:52:14.528Z,76631.41
2023-04-18T20:54:41.869Z,76641.53
2023-04-18T20:57:09.047Z,76633.44
2023-04-18T20:59:36.393Z,76645.59
2023-04-18T21:02:03.905Z,76645.59
2023-04-18T21:04:31.227Z,76641.53
2023-04-18T21:06:58.452Z,76649.66
2023-04-18T21:09:25.711Z,76649.66
2023-04-18T21:11:52.872Z,76645.59
2023-04-18T21:14:20.134Z,76649.66
2023-04-18T21:16:47.649Z,76653.72
2023-04-18T21:19:15.197Z,76657.75
2023-04-18T21:21:43.757Z,76667.91
2023-04-18T21:24:11.265Z,76663.84
2023-04-18T21:26:38.871Z,76678.03
2023-04-18T21:29:06.527Z,76678.03
2023-04-18T21:31:35.053Z,76686.13
2023-04-18T21:34:04.496Z,76684.13
2023-04-18T21:36:32.712Z,76682.09
2023-04-18T21:39:01.038Z,76673.97
2023-04-18T21:41:28.606Z,76690.19
2023-04-18T21:43:55.965Z,76690.19
2023-04-18T21:46:23.168Z,76690.19
2023-04-18T21:48:50.316Z,76698.31
2023-04-18T21:51:17.766Z,76694.25
2023-04-18T21:53:45.072Z,76704.38
2023-04-18T21:56:12.463Z,76700.34
2023-04-18T21:58:39.778Z,76706.41
2023-04-18T22:01:07.152Z,76710.47
2023-04-18T22:03:34.355Z,76710.47
2023-04-18T22:06:01.999Z,76706.41
2023-04-18T22:08:29.924Z,76710.47
2023-04-18T22:10:59.066Z,76712.50
2023-04-18T22:13:30.225Z,76710.47
2023-04-18T22:15:58.343Z,76712.50
2023-04-18T22:18:25.387Z,76718.56
2023-04-18T22:20:53.804Z,76710.47
2023-04-18T22:23:21.013Z,76714.53
2023-04-18T22:25:48.682Z,76710.47
2023-04-18T22:28:15.980Z,76720.59
2023-04-18T22:30:43.848Z,76722.63
2023-04-18T22:33:10.959Z,76730.75
2023-04-18T22:35:38.115Z,76730.75
2023-04-18T22:38:06.381Z,76728.72
2023-04-18T22:40:33.689Z,76724.66
2023-04-18T22:43:00.597Z,76730.75
2023-04-18T22:45:27.975Z,76738.84
2023-04-18T22:47:54.837Z,76736.81
2023-04-18T22:50:22.357Z,76734.78
2023-04-18T22:52:50.537Z,76730.75
2023-04-18T22:55:19.957Z,76730.75
2023-04-18T22:57:46.816Z,76746.97
2023-04-18T23:00:15.023Z,76742.91
2023-04-18T23:02:42.286Z,76744.94
2023-04-18T23:05:10.882Z,76748.97
2023-04-18T23:07:38.083Z,76748.97
2023-04-18T23:10:07.101Z,76748.97
2023-04-18T23:12:34.036Z,76763.16
2023-04-18T23:15:01.565Z,76755.06
2023-04-18T23:17:28.548Z,76763.16
2023-04-18T23:19:55.944Z,76775.34
2023-04-18T23:22:24.281Z,76771.28
2023-04-18T23:24:51.644Z,76779.38
2023-04-18T23:27:19.391Z,76771.28
2023-04-18T23:29:48.757Z,76779.38
2023-04-18T23:32:16.350Z,76775.34
2023-04-18T23:34:45.510Z,76775.34
2023-04-18T23:37:12.653Z,76771.28
2023-04-18T23:39:39.847Z,76779.38
2023-04-18T23:42:07.266Z,76783.44
2023-04-18T23:44:34.408Z,76787.50
2023-04-18T23:47:01.484Z,76787.50
2023-04-18T23:49:28.909Z,76795.59
2023-04-18T23:51:55.862Z,76803.72
2023-04-18T23:54:23.073Z,76797.63
2023-04-18T23:56:50.526Z,76809.81
2023-04-18T23:59:18.125Z,76807.78
